Time;durP1;ratioP1;P1;durP2;ratioP2;P2;SDS_P1;SDS_P2;PMS_P1;PMS_P2;Temp;Humidity;BMP_temperature;BMP_pressure;BME280_temperature;BME280_humidity;BME280_pressure;Samples;Min_cycle;Max_cycle;Signal;HPM_P1;HPM_P2
2024/01/04 00:01:33;;;;;;;1.98;1.30;;;;;;;7.88;100.00;98699.28;6276956;28;20048;-71
2024/01/04 00:04:34;;;;;;;4.03;1.10;;;;;;;7.83;100.00;98696.16;6276366;28;20068;-72
2024/01/04 00:07:36;;;;;;;4.78;1.02;;;;;;;7.78;100.00;98700.09;6276138;28;20045;-71
2024/01/04 00:10:38;;;;;;;3.95;1.10;;;;;;;7.70;100.00;98705.03;6276594;28;20041;-71
2024/01/04 00:13:40;;;;;;;2.08;1.30;;;;;;;7.75;100.00;98700.31;6276171;28;20049;-71
2024/01/04 00:16:41;;;;;;;1.85;1.30;;;;;;;7.65;100.00;98700.16;6275984;28;20334;-71
2024/01/04 00:19:42;;;;;;;2.03;1.25;;;;;;;7.60;100.00;98710.13;6276232;28;20045;-70
2024/01/04 00:22:44;;;;;;;6.53;1.40;;;;;;;7.59;100.00;98698.84;6275914;28;20437;-70
2024/01/04 00:25:46;;;;;;;3.08;1.60;;;;;;;7.67;100.00;98700.84;6271403;28;20052;-70
2024/01/04 00:28:48;;;;;;;6.57;1.60;;;;;;;7.70;100.00;98707.66;6272745;28;20147;-70
2024/01/04 00:31:50;;;;;;;2.22;1.40;;;;;;;7.78;100.00;98706.13;6275826;28;20063;-70
2024/01/04 00:34:51;;;;;;;2.63;1.58;;;;;;;7.82;100.00;98704.97;6275926;28;20056;-70
2024/01/04 00:37:53;;;;;;;2.95;1.77;;;;;;;7.80;100.00;98714.69;6275776;28;20056;-70
2024/01/04 00:40:55;;;;;;;4.38;1.60;;;;;;;7.76;100.00;98709.81;6275767;28;20037;-70
2024/01/04 00:43:57;;;;;;;2.20;1.25;;;;;;;7.85;100.00;98723.03;6267427;28;20049;-71
2024/01/04 00:46:58;;;;;;;2.78;2.13;;;;;;;7.86;100.00;98727.31;6275020;28;20045;-70
2024/01/04 00:49:59;;;;;;;2.83;1.33;;;;;;;7.85;100.00;98733.47;6275713;28;20053;-71
2024/01/04 00:53:01;;;;;;;1.20;1.10;;;;;;;7.82;100.00;98738.97;6275250;28;20045;-70
2024/01/04 00:56:05;;;;;;;2.25;1.42;;;;;;;7.97;100.00;98746.59;6275397;28;20045;-71
2024/01/04 00:59:06;;;;;;;6.07;1.40;;;;;;;7.93;100.00;98739.94;6256102;28;20042;-71
2024/01/04 01:02:07;;;;;;;2.38;1.38;;;;;;;7.99;100.00;98748.16;6250459;28;20037;-71
2024/01/04 01:05:09;;;;;;;2.35;1.55;;;;;;;7.95;100.00;98745.88;6257874;28;20045;-71
2024/01/04 01:08:10;;;;;;;6.82;2.42;;;;;;;8.07;100.00;98745.78;6275126;28;20437;-71
2024/01/04 01:11:13;;;;;;;3.47;2.05;;;;;;;8.00;100.00;98752.44;6275376;28;20170;-71
2024/01/04 01:14:14;;;;;;;4.10;2.47;;;;;;;8.00;100.00;98773.38;6275417;28;20045;-71
2024/01/04 01:17:16;;;;;;;5.22;2.13;;;;;;;8.03;100.00;98769.69;6274717;28;20181;-71
2024/01/04 01:20:17;;;;;;;4.47;2.05;;;;;;;8.07;100.00;98761.50;6266775;28;20042;-71
2024/01/04 01:23:18;;;;;;;3.50;2.17;;;;;;;7.96;100.00;98779.78;6274924;28;20056;-70
2024/01/04 01:26:21;;;;;;;7.22;2.88;;;;;;;7.93;100.00;98797.47;6274408;28;20108;-70
2024/01/04 01:29:22;;;;;;;9.50;2.95;;;;;;;7.91;100.00;98800.22;6275082;28;20391;-70
2024/01/04 01:32:24;;;;;;;10.05;3.15;;;;;;;7.89;100.00;98792.47;6274716;28;20045;-69
2024/01/04 01:35:25;;;;;;;5.93;2.90;;;;;;;7.84;100.00;98798.97;6251592;28;20434;-69
2024/01/04 01:38:26;;;;;;;9.77;2.90;;;;;;;7.86;100.00;98803.16;6270086;28;20045;-70
2024/01/04 01:41:29;;;;;;;4.93;2.78;;;;;;;7.85;100.00;98819.78;6282616;28;20044;-69
2024/01/04 01:44:30;;;;;;;6.82;3.15;;;;;;;7.76;100.00;98820.44;6282838;28;20393;-69
2024/01/04 01:47:32;;;;;;;4.90;2.38;;;;;;;7.74;100.00;98830.19;6282244;28;20049;-69
2024/01/04 01:50:35;;;;;;;2.70;1.92;;;;;;;7.70;100.00;98830.53;6282958;28;20380;-71
2024/01/04 01:53:36;;;;;;;3.85;1.88;;;;;;;7.66;100.00;98852.59;6282710;28;20349;-71
2024/01/04 01:56:39;;;;;;;4.65;1.70;;;;;;;7.60;100.00;98844.25;6282669;28;20052;-70
2024/01/04 01:59:41;;;;;;;2.47;1.45;;;;;;;7.51;100.00;98858.00;6282919;28;20045;-70
2024/01/04 02:02:45;;;;;;;4.90;1.35;;;;;;;7.44;100.00;98854.13;6282555;28;20068;-70
2024/01/04 02:05:46;;;;;;;2.75;1.48;;;;;;;7.45;100.00;98865.41;6282239;28;20437;-71
2024/01/04 02:08:49;;;;;;;2.22;1.13;;;;;;;7.43;100.00;98867.31;6282933;28;20049;-70
2024/01/04 02:11:51;;;;;;;2.10;1.13;;;;;;;7.47;100.00;98881.84;6282619;28;20051;-70
2024/01/04 02:14:54;;;;;;;1.92;1.15;;;;;;;7.38;100.00;98888.53;6281870;28;20041;-71
2024/01/04 02:17:55;;;;;;;1.70;0.95;;;;;;;7.51;100.00;98889.34;6282824;28;20050;-71
2024/01/04 02:20:57;;;;;;;10.25;1.52;;;;;;;7.26;100.00;98907.69;6282553;28;20041;-71
2024/01/04 02:23:59;;;;;;;2.95;1.13;;;;;;;7.27;100.00;98901.53;6282527;28;20052;-71
2024/01/04 02:27:01;;;;;;;3.17;1.25;;;;;;;7.13;100.00;98902.50;6282071;28;20511;-71
2024/01/04 02:30:02;;;;;;;1.60;1.17;;;;;;;7.18;100.00;98915.22;6282826;28;20040;-71
2024/01/04 02:33:04;;;;;;;4.85;1.40;;;;;;;7.15;100.00;98911.03;6282392;28;20045;-70
2024/01/04 02:36:05;;;;;;;2.05;1.20;;;;;;;7.05;100.00;98918.69;6282058;28;20044;-71
2024/01/04 02:39:09;;;;;;;1.33;0.88;;;;;;;7.02;100.00;98923.25;6282393;28;20044;-72
2024/01/04 02:42:11;;;;;;;1.98;1.10;;;;;;;7.06;100.00;98924.72;6282347;28;20123;-71
2024/01/04 02:45:13;;;;;;;5.60;1.02;;;;;;;7.03;100.00;98933.59;6282054;28;20041;-71
2024/01/04 02:48:14;;;;;;;0.82;0.70;;;;;;;7.07;100.00;98942.06;6282246;28;20048;-69
2024/01/04 02:51:16;;;;;;;0.75;0.68;;;;;;;7.10;100.00;98947.94;6278386;28;20045;-69
2024/01/04 02:54:18;;;;;;;0.85;0.70;;;;;;;7.06;100.00;98956.91;6261848;28;20323;-69
2024/01/04 02:57:19;;;;;;;2.25;0.90;;;;;;;6.88;100.00;98968.59;6275372;28;20045;-69
2024/01/04 03:00:22;;;;;;;2.08;0.52;;;;;;;6.81;100.00;98977.75;6253324;28;20053;-69
2024/01/04 03:03:23;;;;;;;3.30;0.98;;;;;;;6.93;100.00;98978.72;6254321;28;20049;-69
2024/01/04 03:06:25;;;;;;;0.90;0.70;;;;;;;6.65;100.00;98990.16;6277373;28;20055;-69
2024/01/04 03:09:28;;;;;;;0.55;0.55;;;;;;;6.66;100.00;98995.28;6278242;28;20083;-69
2024/01/04 03:12:29;;;;;;;0.88;0.60;;;;;;;6.60;100.00;99016.56;6277789;28;20045;-69
2024/01/04 03:15:31;;;;;;;1.30;0.80;;;;;;;6.39;100.00;99010.09;6265585;28;20049;-69
2024/01/04 03:18:34;;;;;;;5.32;1.27;;;;;;;6.20;100.00;99016.50;6263506;28;20473;-69
2024/01/04 03:21:35;;;;;;;0.68;0.60;;;;;;;5.95;100.00;99027.63;6277916;28;20044;-68
2024/01/04 03:24:38;;;;;;;2.63;0.70;;;;;;;5.90;100.00;99032.22;6277344;28;20048;-70
2024/01/04 03:27:39;;;;;;;2.58;0.70;;;;;;;5.67;100.00;99038.03;6263607;28;20046;-69
2024/01/04 03:30:40;;;;;;;1.65;0.55;;;;;;;5.58;100.00;99053.28;6265001;28;20052;-70
2024/01/04 03:33:42;;;;;;;3.50;1.42;;;;;;;5.63;100.00;99044.34;6273134;28;20045;-69
2024/01/04 03:36:43;;;;;;;0.70;0.50;;;;;;;5.64;100.00;99056.47;6259520;28;20049;-69
2024/01/04 03:39:45;;;;;;;1.33;0.50;;;;;;;5.69;100.00;99063.06;6262450;28;20124;-69
2024/01/04 03:42:47;;;;;;;1.63;0.90;;;;;;;5.68;100.00;99065.75;6264544;28;20396;-69
2024/01/04 03:45:48;;;;;;;1.17;0.50;;;;;;;5.72;100.00;99062.91;6276682;28;20130;-69
2024/01/04 03:48:50;;;;;;;0.68;0.50;;;;;;;5.78;100.00;99064.28;6272979;28;20049;-69
2024/01/04 03:51:51;;;;;;;0.98;0.60;;;;;;;5.73;100.00;99075.00;6269374;28;20037;-69
2024/01/04 03:54:54;;;;;;;1.05;0.90;;;;;;;5.72;100.00;99085.50;6276700;28;20045;-69
2024/01/04 03:57:56;;;;;;;0.77;0.63;;;;;;;5.79;100.00;99089.41;6276749;28;20349;-69
2024/01/04 04:00:57;;;;;;;6.93;0.85;;;;;;;5.72;100.00;99083.75;6276717;28;20051;-70
2024/01/04 04:03:58;;;;;;;3.63;0.68;;;;;;;5.49;100.00;99105.09;6270811;28;20053;-69
2024/01/04 04:07:00;;;;;;;0.70;0.65;;;;;;;5.60;100.00;99113.13;6263184;28;20056;-69
2024/01/04 04:10:04;;;;;;;0.75;0.60;;;;;;;5.78;100.00;99103.38;6276608;28;20377;-69
2024/01/04 04:13:05;;;;;;;2.10;0.65;;;;;;;5.75;100.00;99098.34;6276393;28;20128;-69
2024/01/04 04:16:06;;;;;;;1.48;0.38;;;;;;;5.70;100.00;99110.81;6274682;28;20045;-68
2024/01/04 04:19:08;;;;;;;0.65;0.50;;;;;;;5.62;100.00;99120.84;6276375;28;20055;-68
2024/01/04 04:22:09;;;;;;;2.88;0.40;;;;;;;5.73;100.00;99113.25;6275972;28;20346;-69
2024/01/04 04:25:12;;;;;;;1.13;0.35;;;;;;;5.60;100.00;99128.78;6275893;28;20051;-69
2024/01/04 04:28:13;;;;;;;0.22;0.22;;;;;;;5.67;100.00;99132.66;6276335;28;20053;-68
2024/01/04 04:31:16;;;;;;;0.98;0.43;;;;;;;5.75;100.00;99135.66;6276152;28;20143;-68
2024/01/04 04:34:17;;;;;;;1.85;0.50;;;;;;;5.69;100.00;99145.63;6276086;28;20448;-69
2024/01/04 04:37:18;;;;;;;0.68;0.20;;;;;;;5.82;100.00;99146.59;6275220;28;20059;-68
2024/01/04 04:40:21;;;;;;;1.45;0.35;;;;;;;5.65;100.00;99144.97;6276192;28;20353;-68
2024/01/04 04:43:22;;;;;;;1.58;0.50;;;;;;;5.66;100.00;99157.06;6275668;28;20056;-69
2024/01/04 04:46:23;;;;;;;0.35;0.35;;;;;;;5.75;100.00;99147.88;6275249;28;20053;-69
2024/01/04 04:49:26;;;;;;;0.40;0.40;;;;;;;5.67;100.00;99157.91;6275736;28;20456;-70
2024/01/04 04:52:27;;;;;;;4.10;0.75;;;;;;;5.72;100.00;99163.69;6275297;28;20045;-69
2024/01/04 04:55:30;;;;;;;0.63;0.40;;;;;;;5.70;100.00;99171.59;6275338;28;20055;-69
2024/01/04 04:58:31;;;;;;;1.95;0.40;;;;;;;5.64;100.00;99186.75;6264378;28;20057;-70
2024/01/04 05:01:33;;;;;;;0.50;0.40;;;;;;;5.69;100.00;99189.94;6250750;28;20053;-69
2024/01/04 05:04:34;;;;;;;4.38;0.63;;;;;;;5.61;100.00;99198.19;6250241;28;20057;-69
2024/01/04 05:07:35;;;;;;;0.35;0.35;;;;;;;5.55;100.00;99207.22;6252636;28;20049;-69
2024/01/04 05:10:38;;;;;;;0.65;0.40;;;;;;;5.40;100.00;99231.50;6275341;28;20053;-69
2024/01/04 05:13:39;;;;;;;1.30;0.43;;;;;;;5.45;100.00;99223.44;6274386;28;20369;-68
2024/01/04 05:16:41;;;;;;;0.50;0.25;;;;;;;5.26;100.00;99216.66;6274831;28;20128;-69
2024/01/04 05:19:44;;;;;;;0.98;0.40;;;;;;;5.33;100.00;99222.38;6260308;28;20064;-70
2024/01/04 05:22:45;;;;;;;1.63;0.35;;;;;;;5.35;100.00;99247.41;6261999;28;20044;-69
2024/01/04 05:25:48;;;;;;;0.28;0.28;;;;;;;5.29;100.00;99255.56;6274617;28;20045;-69
2024/01/04 05:28:49;;;;;;;1.58;0.20;;;;;;;5.54;100.00;99252.44;6275178;28;20045;-69
2024/01/04 05:31:50;;;;;;;0.17;0.17;;;;;;;5.46;100.00;99259.00;6274744;28;20045;-69
2024/01/04 05:34:52;;;;;;;1.85;0.30;;;;;;;5.48;100.00;99284.03;6274523;28;20049;-70
2024/01/04 05:37:53;;;;;;;3.50;0.20;;;;;;;5.31;100.00;99281.50;6274388;28;20055;-70
2024/01/04 05:40:56;;;;;;;1.20;0.47;;;;;;;5.34;100.00;99290.00;6275018;28;20045;-69
2024/01/04 05:43:57;;;;;;;0.73;0.35;;;;;;;5.25;100.00;99289.69;6274601;28;20071;-69
2024/01/04 05:46:58;;;;;;;0.30;0.30;;;;;;;5.30;100.00;99301.50;6274369;28;20037;-69
2024/01/04 05:50:00;;;;;;;3.70;0.57;;;;;;;5.34;100.00;99310.84;6274830;28;20044;-69
2024/01/04 05:53:01;;;;;;;2.05;0.47;;;;;;;5.11;100.00;99319.06;6274423;28;20037;-68
2024/01/04 05:56:04;;;;;;;1.20;0.43;;;;;;;5.18;100.00;99330.84;6274200;28;20049;-68
2024/01/04 05:59:06;;;;;;;0.20;0.20;;;;;;;4.94;100.00;99329.53;6274548;28;20052;-69
2024/01/04 06:02:07;;;;;;;1.45;0.40;;;;;;;4.90;100.00;99344.47;6274294;28;20353;-69
2024/01/04 06:05:09;;;;;;;0.38;0.30;;;;;;;4.83;100.00;99353.53;6274120;28;20049;-68
2024/01/04 06:08:10;;;;;;;0.20;0.20;;;;;;;4.84;100.00;99371.66;6271255;28;20053;-69
2024/01/04 06:11:13;;;;;;;0.65;0.63;;;;;;;4.67;100.00;99366.47;6264792;28;20063;-68
2024/01/04 06:14:14;;;;;;;4.47;0.60;;;;;;;4.60;100.00;99372.94;6261497;28;20052;-69
2024/01/04 06:17:15;;;;;;;1.17;0.60;;;;;;;4.46;100.00;99388.41;6271857;28;20357;-68
2024/01/04 06:20:17;;;;;;;0.90;0.45;;;;;;;4.62;100.00;99391.06;6259734;28;20056;-68
2024/01/04 06:23:18;;;;;;;1.33;0.60;;;;;;;4.51;100.00;99396.81;6274230;28;20438;-68
2024/01/04 06:26:21;;;;;;;1.10;0.60;;;;;;;4.54;100.00;99415.72;6265929;28;20056;-68
2024/01/04 06:29:22;;;;;;;0.90;0.60;;;;;;;4.56;100.00;99413.88;6255853;28;20049;-68
2024/01/04 06:32:24;;;;;;;0.80;0.52;;;;;;;4.41;100.00;99422.44;6257695;28;20045;-68
2024/01/04 06:35:25;;;;;;;5.78;0.88;;;;;;;4.32;100.00;99431.53;6266711;28;20056;-69
2024/01/04 06:38:26;;;;;;;0.88;0.50;;;;;;;4.23;100.00;99439.78;6261223;28;20433;-70
2024/01/04 06:41:30;;;;;;;0.60;0.38;;;;;;;4.17;100.00;99442.66;6261392;28;20048;-69
2024/01/04 06:44:31;;;;;;;2.78;0.50;;;;;;;4.25;100.00;99444.91;6261183;28;20056;-69
2024/01/04 06:47:32;;;;;;;0.88;0.55;;;;;;;4.29;100.00;99442.09;6260999;28;20195;-69
2024/01/04 06:50:34;;;;;;;3.30;0.50;;;;;;;4.30;100.00;99453.31;6261379;28;20485;-69
2024/01/04 06:53:35;;;;;;;1.60;0.80;;;;;;;4.29;100.00;99457.69;6261294;28;20041;-69
2024/01/04 06:56:38;;;;;;;1.48;0.88;;;;;;;4.23;100.00;99462.34;6256819;28;20050;-69
2024/01/04 06:59:39;;;;;;;2.55;0.80;;;;;;;4.28;100.00;99466.41;6254750;28;20056;-69
2024/01/04 07:02:40;;;;;;;1.08;0.80;;;;;;;4.32;100.00;99467.94;6255659;28;20041;-69
2024/01/04 07:05:42;;;;;;;2.88;1.00;;;;;;;4.31;100.00;99478.41;6255351;28;20053;-69
2024/01/04 07:08:43;;;;;;;1.15;0.82;;;;;;;4.28;100.00;99489.81;6255314;28;20365;-69
2024/01/04 07:11:46;;;;;;;1.30;0.98;;;;;;;4.33;100.00;99494.78;6255336;28;20349;-69
2024/01/04 07:14:47;;;;;;;1.50;1.13;;;;;;;4.33;100.00;99498.22;6264645;28;20041;-69
2024/01/04 07:17:48;;;;;;;1.70;1.08;;;;;;;4.33;100.00;99503.44;6277635;28;20349;-69
2024/01/04 07:20:50;;;;;;;2.83;1.40;;;;;;;4.33;100.00;99503.44;6278100;28;20045;-69
2024/01/04 07:23:51;;;;;;;4.85;1.08;;;;;;;4.17;100.00;99523.25;6277621;28;20041;-69
2024/01/04 07:26:54;;;;;;;7.15;1.02;;;;;;;4.33;100.00;99532.03;6277410;28;20067;-68
2024/01/04 07:29:56;;;;;;;2.35;1.13;;;;;;;4.26;100.00;99530.63;6266792;28;20439;-69
2024/01/04 07:32:57;;;;;;;2.28;1.23;;;;;;;4.29;100.00;99553.06;6260270;28;20048;-69
2024/01/04 07:35:59;;;;;;;1.02;0.90;;;;;;;4.18;100.00;99544.91;6257019;28;20045;-68
2024/01/04 07:39:00;;;;;;;2.13;1.20;;;;;;;4.16;100.00;99554.53;6258091;28;20354;-68
2024/01/04 07:42:04;;;;;;;1.95;1.08;;;;;;;4.29;100.00;99561.69;6257942;28;20052;-69
2024/01/04 07:45:06;;;;;;;1.75;1.00;;;;;;;4.37;100.00;99578.72;6251326;28;20366;-69
2024/01/04 07:48:11;;;;;;;2.60;0.85;;;;;;;4.25;100.00;99580.13;6257937;28;20052;-69
2024/01/04 07:51:12;;;;;;;3.67;1.33;;;;;;;4.15;100.00;99586.66;6257543;28;20394;-69
2024/01/04 07:54:14;;;;;;;1.70;1.10;;;;;;;4.26;100.00;99598.25;6254800;28;20053;-69
2024/01/04 07:57:16;;;;;;;2.75;1.17;;;;;;;4.16;100.00;99603.94;6254039;28;20060;-69
2024/01/04 08:00:19;;;;;;;2.05;1.50;;;;;;;4.21;100.00;99610.63;6268892;28;20055;-69
2024/01/04 08:03:20;;;;;;;2.50;1.40;;;;;;;4.42;100.00;99615.75;6276670;28;20186;-69
2024/01/04 08:06:22;;;;;;;3.67;2.05;;;;;;;4.39;100.00;99610.69;6275845;28;20052;-69
2024/01/04 08:09:23;;;;;;;5.47;2.28;;;;;;;4.21;100.00;99618.41;6276716;28;20060;-68
2024/01/04 08:12:26;;;;;;;2.67;1.60;;;;;;;4.21;100.00;99631.41;6276450;28;20049;-68
2024/01/04 08:15:28;;;;;;;10.80;1.50;;;;;;;4.20;100.00;99637.53;6276271;28;20044;-68
2024/01/04 08:18:31;;;;;;;1.08;0.98;;;;;;;4.27;100.00;99645.88;6276271;28;20368;-68
2024/01/04 08:21:32;;;;;;;1.35;1.02;;;;;;;4.32;100.00;99631.78;6276579;28;20056;-68
2024/01/04 08:24:33;;;;;;;0.93;0.82;;;;;;;4.30;100.00;99641.41;6275907;28;20049;-68
2024/01/04 08:27:36;;;;;;;0.75;0.70;;;;;;;4.25;100.00;99645.13;6275977;28;20060;-68
2024/01/04 08:30:37;;;;;;;2.08;1.00;;;;;;;4.23;100.00;99658.22;6276187;28;20048;-68
2024/01/04 08:33:39;;;;;;;7.18;1.00;;;;;;;4.29;100.00;99668.31;6276169;28;20174;-68
2024/01/04 08:36:40;;;;;;;1.27;1.00;;;;;;;4.05;100.00;99667.66;6265043;28;20045;-74
2024/01/04 08:39:41;;;;;;;0.82;0.55;;;;;;;4.16;100.00;99681.94;6253439;28;20049;-70
2024/01/04 08:42:44;;;;;;;3.42;0.50;;;;;;;4.08;100.00;99677.91;6275718;28;20041;-70
2024/01/04 08:45:45;;;;;;;1.85;0.80;;;;;;;4.28;100.00;99684.84;6273595;28;20441;-69
2024/01/04 08:48:47;;;;;;;0.93;0.65;;;;;;;4.23;100.00;99685.97;6235878;28;20057;-68
2024/01/04 08:51:48;;;;;;;1.42;0.82;;;;;;;4.06;100.00;99699.69;6240573;28;20041;-69
2024/01/04 08:54:49;;;;;;;1.70;0.60;;;;;;;4.16;100.00;99705.34;6246478;28;20471;-69
2024/01/04 08:57:52;;;;;;;1.25;0.70;;;;;;;4.12;100.00;99706.38;6247982;28;20045;-69
2024/01/04 09:00:53;;;;;;;1.33;0.60;;;;;;;4.23;100.00;99717.19;6249682;28;20071;-68
2024/01/04 09:03:55;;;;;;;0.65;0.57;;;;;;;4.30;100.00;99715.97;6250296;28;20042;-68
2024/01/04 09:06:58;;;;;;;0.88;0.70;;;;;;;4.31;100.00;99726.34;6250002;28;20045;-68
2024/01/04 09:09:59;;;;;;;1.30;0.70;;;;;;;4.44;100.00;99724.00;6243900;28;20491;-68
2024/01/04 09:13:02;;;;;;;0.50;0.50;;;;;;;4.37;100.00;99734.78;6241570;28;20045;-70
2024/01/04 09:16:04;;;;;;;1.98;0.70;;;;;;;4.28;100.00;99742.06;6258295;28;20050;-68
2024/01/04 09:19:06;;;;;;;0.60;0.50;;;;;;;4.35;100.00;99744.38;6249944;28;20041;-69
2024/01/04 09:22:08;;;;;;;1.20;0.60;;;;;;;4.35;100.00;99755.63;6247866;28;20049;-69
2024/01/04 09:25:09;;;;;;;1.60;0.50;;;;;;;4.12;100.00;99760.97;6249721;28;20190;-69
2024/01/04 09:28:12;;;;;;;2.33;0.40;;;;;;;4.12;100.00;99771.38;6250314;28;20052;-68
2024/01/04 09:31:13;;;;;;;1.50;0.45;;;;;;;4.05;100.00;99763.84;6252634;28;20049;-69
2024/01/04 09:34:15;;;;;;;1.17;0.50;;;;;;;4.08;100.00;99779.31;6250131;28;20052;-69
2024/01/04 09:37:16;;;;;;;0.95;0.40;;;;;;;4.04;100.00;99782.97;6239642;28;20491;-69
2024/01/04 09:40:19;;;;;;;0.38;0.30;;;;;;;3.80;100.00;99784.81;6248854;28;20058;-71
2024/01/04 09:43:22;;;;;;;0.63;0.35;;;;;;;3.81;100.00;99789.13;6248644;28;20434;-69
2024/01/04 09:46:26;;;;;;;0.57;0.40;;;;;;;3.94;100.00;99801.59;6250014;28;20045;-71
2024/01/04 09:49:28;;;;;;;5.88;0.50;;;;;;;3.95;100.00;99805.88;6250502;28;20046;-68
2024/01/04 09:52:30;;;;;;;0.98;0.38;;;;;;;4.03;100.00;99814.22;6251109;28;20056;-69
2024/01/04 09:55:35;;;;;;;0.45;0.45;;;;;;;4.01;100.00;99821.22;6246658;28;20056;-69
2024/01/04 09:58:37;;;;;;;4.30;1.17;;;;;;;4.12;100.00;99825.97;6249653;28;20052;-68
2024/01/04 10:01:39;;;;;;;1.38;0.55;;;;;;;3.80;100.00;99830.75;6256337;28;20386;-68
2024/01/04 10:04:43;;;;;;;4.20;1.30;;;;;;;3.94;100.00;99836.22;6259915;28;20073;-68
2024/01/04 10:07:53;;;;;;;3.03;1.05;;;;;;;3.79;100.00;99842.06;6254360;28;20808;-68
2024/01/04 10:11:00;;;;;;;2.38;0.70;;;;;;;3.88;100.00;99846.88;6258803;28;20055;-68
2024/01/04 10:14:05;;;;;;;2.67;0.98;;;;;;;3.89;100.00;99852.91;6270327;28;20341;-68
2024/01/04 10:17:09;;;;;;;0.77;0.57;;;;;;;3.86;100.00;99866.03;6259726;28;20451;-70
2024/01/04 10:20:11;;;;;;;0.68;0.40;;;;;;;3.75;100.00;99872.50;6279227;28;20044;-68
2024/01/04 10:23:13;;;;;;;1.90;0.47;;;;;;;3.87;100.00;99873.78;6278985;28;20426;-68
2024/01/04 10:26:18;;;;;;;2.88;0.57;;;;;;;4.05;100.00;99890.41;6256920;28;20049;-68
2024/01/04 10:29:22;;;;;;;1.42;0.80;;;;;;;4.00;100.00;99889.75;6256544;28;20150;-70
2024/01/04 10:32:23;;;;;;;1.13;0.52;;;;;;;4.13;100.00;99887.47;6254131;28;20458;-68
2024/01/04 10:35:26;;;;;;;2.10;0.60;;;;;;;4.11;100.00;99895.34;6261909;28;20053;-69
2024/01/04 10:38:33;;;;;;;1.05;0.60;;;;;;;3.95;100.00;99900.31;6250410;28;20049;-68
2024/01/04 10:41:34;;;;;;;0.93;0.52;;;;;;;4.05;100.00;99896.44;6263554;28;20157;-69
2024/01/04 10:44:38;;;;;;;0.45;0.35;;;;;;;4.16;100.00;99895.16;6278053;28;20104;-69
2024/01/04 10:47:41;;;;;;;0.50;0.50;;;;;;;4.13;100.00;99900.47;6278572;28;20060;-69
2024/01/04 10:50:42;;;;;;;3.10;0.90;;;;;;;4.00;100.00;99900.97;6278491;28;20118;-68
2024/01/04 10:53:44;;;;;;;1.13;0.60;;;;;;;4.07;100.00;99905.00;6278504;28;20456;-69
2024/01/04 10:56:46;;;;;;;1.25;0.52;;;;;;;3.92;100.00;99905.63;6277246;28;20057;-70
2024/01/04 10:59:51;;;;;;;0.45;0.45;;;;;;;3.80;100.00;99913.91;6253708;28;20058;-70
2024/01/04 11:02:54;;;;;;;0.47;0.43;;;;;;;4.05;100.00;99925.03;6267782;28;20048;-70
2024/01/04 11:05:56;;;;;;;1.02;0.50;;;;;;;4.03;100.00;99928.59;6252825;28;20473;-69
2024/01/04 11:08:58;;;;;;;1.40;0.70;;;;;;;4.05;100.00;99924.19;6253292;28;20049;-69
2024/01/04 11:12:02;;;;;;;1.48;0.60;;;;;;;4.00;100.00;99941.72;6256773;28;20045;-68
2024/01/04 11:15:06;;;;;;;0.70;0.55;;;;;;;3.99;100.00;99922.66;6277573;28;20048;-71
2024/01/04 11:18:20;;;;;;;0.60;0.50;;;;;;;3.94;100.00;99932.41;6277789;28;20068;-69
2024/01/04 11:21:40;;;;;;;0.75;0.70;;;;;;;3.93;100.00;99929.88;6277997;28;20052;-69
2024/01/04 11:24:51;;;;;;;0.82;0.45;;;;;;;4.03;100.00;99934.63;6277214;28;20052;-71
2024/01/04 11:27:54;;;;;;;1.50;0.40;;;;;;;3.85;100.00;99931.91;6248168;28;20364;-68
2024/01/04 11:30:56;;;;;;;0.45;0.43;;;;;;;3.90;100.00;99929.97;6273514;28;20068;-68
2024/01/04 11:33:58;;;;;;;2.00;0.70;;;;;;;4.11;100.00;99938.69;6259191;28;20041;-69
2024/01/04 11:37:10;;;;;;;5.55;1.05;;;;;;;4.16;100.00;99949.75;6237502;28;20045;-68
2024/01/04 11:40:12;;;;;;;1.67;0.73;;;;;;;4.37;100.00;99946.31;6242467;28;20045;-69
2024/01/04 11:43:14;;;;;;;0.85;0.40;;;;;;;4.21;100.00;99950.41;6244437;28;20046;-69
2024/01/04 11:46:21;;;;;;;0.80;0.50;;;;;;;4.21;100.00;99951.25;6241971;28;20136;-68
2024/01/04 11:49:23;;;;;;;2.95;0.65;;;;;;;4.24;100.00;99953.75;6252177;28;20705;-68
2024/01/04 11:52:27;;;;;;;1.17;0.50;;;;;;;4.27;100.00;99950.16;6268582;28;20053;-69
2024/01/04 11:55:29;;;;;;;2.72;0.30;;;;;;;4.24;100.00;99952.91;6237268;28;20046;-68
2024/01/04 11:58:30;;;;;;;0.90;0.30;;;;;;;4.17;100.00;99964.44;6252036;28;20065;-69
2024/01/04 12:01:33;;;;;;;2.97;0.57;;;;;;;3.96;100.00;99961.78;6237731;28;20049;-69
2024/01/04 12:04:36;;;;;;;2.13;1.05;;;;;;;3.82;100.00;99966.69;6244336;28;20050;-69
2024/01/04 12:07:37;;;;;;;1.55;0.70;;;;;;;3.93;100.00;99961.91;6238970;28;20415;-68
2024/01/04 12:10:41;;;;;;;1.50;0.50;;;;;;;4.06;100.00;99968.31;6244760;28;20045;-68
2024/01/04 12:13:43;;;;;;;2.60;0.85;;;;;;;4.06;100.00;99976.13;6257392;28;20322;-70
2024/01/04 12:16:46;;;;;;;0.45;0.45;;;;;;;3.88;100.00;99986.38;6239348;28;20074;-70
2024/01/04 12:19:48;;;;;;;1.45;0.65;;;;;;;3.79;100.00;99980.63;6239878;28;20676;-70
2024/01/04 12:22:50;;;;;;;2.88;0.68;;;;;;;3.90;100.00;99981.97;6240892;28;20121;-70
2024/01/04 12:25:51;;;;;;;2.25;0.73;;;;;;;3.86;100.00;99994.25;6246433;28;20558;-70
2024/01/04 12:28:55;;;;;;;1.02;0.50;;;;;;;3.91;100.00;99994.91;6240071;28;20049;-70
2024/01/04 12:31:57;;;;;;;0.43;0.32;;;;;;;3.93;100.00;99997.44;6245615;28;20064;-70
2024/01/04 12:35:01;;;;;;;2.88;0.52;;;;;;;4.01;100.00;100004.03;6243787;28;20046;-70
2024/01/04 12:38:04;;;;;;;3.50;0.50;;;;;;;4.03;100.00;100010.03;6235379;28;20046;-70
2024/01/04 12:41:06;;;;;;;15.32;3.92;;;;;;;3.97;100.00;100012.88;6238922;28;20060;-69
2024/01/04 12:44:07;;;;;;;4.93;0.88;;;;;;;4.10;100.00;100015.84;6243335;28;20049;-70
2024/01/04 12:47:11;;;;;;;0.75;0.43;;;;;;;3.97;100.00;100012.88;6243543;28;20053;-70
2024/01/04 12:50:19;;;;;;;0.50;0.47;;;;;;;4.11;100.00;100017.53;6247483;28;20072;-70
2024/01/04 12:53:20;;;;;;;0.90;0.50;;;;;;;4.08;100.00;100021.09;6250626;28;20061;-70
2024/01/04 12:56:22;;;;;;;1.73;0.63;;;;;;;3.92;100.00;100022.59;6240153;28;20065;-69
2024/01/04 12:59:23;;;;;;;0.57;0.40;;;;;;;3.75;100.00;100020.63;6247917;28;20130;-69
2024/01/04 13:02:26;;;;;;;0.52;0.40;;;;;;;3.97;100.00;100030.22;6250683;28;20045;-70
2024/01/04 13:05:27;;;;;;;1.52;0.60;;;;;;;4.13;100.00;100033.91;6248322;28;20044;-70
2024/01/04 13:08:29;;;;;;;1.30;0.50;;;;;;;3.94;100.00;100030.31;6239363;28;20041;-70
2024/01/04 13:11:30;;;;;;;7.07;0.70;;;;;;;3.91;100.00;100033.91;6249084;28;20053;-70
2024/01/04 13:14:32;;;;;;;0.45;0.40;;;;;;;3.93;100.00;100041.63;6256907;28;20048;-70
2024/01/04 13:17:35;;;;;;;1.08;0.55;;;;;;;4.13;100.00;100046.91;6265362;28;20365;-70
2024/01/04 13:20:38;;;;;;;0.70;0.60;;;;;;;4.15;100.00;100037.31;6254701;28;20054;-70
2024/01/04 13:23:40;;;;;;;0.82;0.55;;;;;;;4.07;100.00;100049.75;6251638;28;20053;-70
2024/01/04 13:26:41;;;;;;;0.75;0.47;;;;;;;4.10;100.00;100043.59;6274663;28;20056;-70
2024/01/04 13:29:42;;;;;;;4.00;0.52;;;;;;;3.93;100.00;100054.63;6275204;28;20060;-70
2024/01/04 13:32:45;;;;;;;3.20;0.88;;;;;;;3.96;100.00;100054.53;6274792;28;20049;-70
2024/01/04 13:35:46;;;;;;;3.42;1.45;;;;;;;4.04;100.00;100053.34;6259874;28;20350;-70
2024/01/04 13:38:48;;;;;;;0.65;0.50;;;;;;;3.97;100.00;100061.41;6238176;28;20410;-70
2024/01/04 13:41:49;;;;;;;1.42;0.95;;;;;;;4.11;100.00;100063.50;6250097;28;20065;-70
2024/01/04 13:44:50;;;;;;;2.58;0.50;;;;;;;3.86;100.00;100064.41;6252451;28;20088;-70
2024/01/04 13:47:53;;;;;;;1.40;0.80;;;;;;;3.88;100.00;100067.78;6255148;28;20046;-70
2024/01/04 13:50:55;;;;;;;1.58;0.70;;;;;;;3.87;100.00;100071.31;6261675;28;20045;-70
2024/01/04 13:53:57;;;;;;;0.75;0.50;;;;;;;4.03;100.00;100077.63;6274395;28;20461;-70
2024/01/04 13:56:58;;;;;;;1.27;0.85;;;;;;;3.91;100.00;100079.84;6262714;28;20121;-70
2024/01/04 13:59:59;;;;;;;3.03;0.40;;;;;;;3.83;100.00;100090.50;6235141;28;20050;-70
2024/01/04 14:03:02;;;;;;;1.27;0.60;;;;;;;3.82;100.00;100086.22;6246478;28;20053;-70
2024/01/04 14:06:05;;;;;;;2.22;0.70;;;;;;;3.82;100.00;100083.63;6239554;28;20123;-70
2024/01/04 14:09:06;;;;;;;1.48;0.65;;;;;;;3.85;100.00;100093.88;6243270;28;20053;-70
2024/01/04 14:12:10;;;;;;;1.67;0.65;;;;;;;3.90;100.00;100104.97;6234536;28;20041;-70
2024/01/04 14:15:11;;;;;;;2.70;0.40;;;;;;;3.90;100.00;100106.72;6239838;28;20515;-70